sensor_id;sensor_type;location;lat;lon;timestamp;temperature;humidity
39919;DHT22;25589;51.552;13.424;2023-06-24T00:02:01;18.40;99.90
39919;DHT22;25589;51.552;13.424;2023-06-24T00:04:27;18.40;99.90
39919;DHT22;25589;51.552;13.424;2023-06-24T00:06:52;18.40;99.90
39919;DHT22;25589;51.552;13.424;2023-06-24T00:09:18;18.40;99.90
39919;DHT22;25589;51.552;13.424;2023-06-24T00:11:44;18.40;99.90
39919;DHT22;25589;51.552;13.424;2023-06-24T00:14:09;18.40;99.90
39919;DHT22;25589;51.552;13.424;2023-06-24T00:16:36;18.50;99.90
39919;DHT22;25589;51.552;13.424;2023-06-24T00:19:02;18.50;99.90
39919;DHT22;25589;51.552;13.424;2023-06-24T00:21:28;18.50;99.90
39919;DHT22;25589;51.552;13.424;2023-06-24T00:23:56;18.70;99.90
39919;DHT22;25589;51.552;13.424;2023-06-24T00:26:21;18.50;99.90
39919;DHT22;25589;51.552;13.424;2023-06-24T00:28:47;18.50;99.90
39919;DHT22;25589;51.552;13.424;2023-06-24T00:31:12;18.50;99.90
39919;DHT22;25589;51.552;13.424;2023-06-24T00:33:38;18.70;99.90
39919;DHT22;25589;51.552;13.424;2023-06-24T00:36:04;18.50;99.90
39919;DHT22;25589;51.552;13.424;2023-06-24T00:38:31;18.40;99.90
39919;DHT22;25589;51.552;13.424;2023-06-24T00:40:58;18.50;99.90
39919;DHT22;25589;51.552;13.424;2023-06-24T00:43:24;18.60;99.90
39919;DHT22;25589;51.552;13.424;2023-06-24T00:45:50;18.60;99.90
39919;DHT22;25589;51.552;13.424;2023-06-24T00:48:16;18.60;99.90
39919;DHT22;25589;51.552;13.424;2023-06-24T00:50:42;18.90;99.90
39919;DHT22;25589;51.552;13.424;2023-06-24T00:53:11;18.80;99.90
39919;DHT22;25589;51.552;13.424;2023-06-24T00:55:38;18.60;99.90
39919;DHT22;25589;51.552;13.424;2023-06-24T00:58:05;18.60;99.90
39919;DHT22;25589;51.552;13.424;2023-06-24T01:00:31;18.60;99.90
39919;DHT22;25589;51.552;13.424;2023-06-24T01:03:00;18.50;99.90
39919;DHT22;25589;51.552;13.424;2023-06-24T01:05:26;18.50;99.90
39919;DHT22;25589;51.552;13.424;2023-06-24T01:07:54;18.40;99.90
39919;DHT22;25589;51.552;13.424;2023-06-24T01:10:22;18.50;99.90
39919;DHT22;25589;51.552;13.424;2023-06-24T01:12:49;18.40;99.90
39919;DHT22;25589;51.552;13.424;2023-06-24T01:15:15;18.30;99.90
39919;DHT22;25589;51.552;13.424;2023-06-24T01:23:17;18.30;99.90
39919;DHT22;25589;51.552;13.424;2023-06-24T01:26:10;18.30;99.90
39919;DHT22;25589;51.552;13.424;2023-06-24T01:29:02;18.30;99.90
39919;DHT22;25589;51.552;13.424;2023-06-24T01:31:39;18.10;99.90
39919;DHT22;25589;51.552;13.424;2023-06-24T01:34:44;18.50;99.90
39919;DHT22;25589;51.552;13.424;2023-06-24T01:37:25;18.30;99.90
39919;DHT22;25589;51.552;13.424;2023-06-24T01:39:58;18.20;99.90
39919;DHT22;25589;51.552;13.424;2023-06-24T01:42:28;18.10;99.90
39919;DHT22;25589;51.552;13.424;2023-06-24T01:44:56;18.30;99.90
39919;DHT22;25589;51.552;13.424;2023-06-24T01:47:26;18.30;99.90
39919;DHT22;25589;51.552;13.424;2023-06-24T01:49:53;18.30;99.90
39919;DHT22;25589;51.552;13.424;2023-06-24T01:52:21;18.30;99.90
39919;DHT22;25589;51.552;13.424;2023-06-24T01:54:49;18.30;99.90
39919;DHT22;25589;51.552;13.424;2023-06-24T01:57:16;18.40;99.90
39919;DHT22;25589;51.552;13.424;2023-06-24T01:59:45;18.30;99.90
39919;DHT22;25589;51.552;13.424;2023-06-24T02:02:12;18.30;99.90
39919;DHT22;25589;51.552;13.424;2023-06-24T02:04:39;18.30;99.90
39919;DHT22;25589;51.552;13.424;2023-06-24T02:07:06;18.30;99.90
39919;DHT22;25589;51.552;13.424;2023-06-24T02:09:38;18.30;99.90
39919;DHT22;25589;51.552;13.424;2023-06-24T02:12:05;18.60;99.90
39919;DHT22;25589;51.552;13.424;2023-06-24T02:14:33;18.40;99.90
39919;DHT22;25589;51.552;13.424;2023-06-24T02:17:02;18.40;99.90
39919;DHT22;25589;51.552;13.424;2023-06-24T02:19:33;18.40;99.90
39919;DHT22;25589;51.552;13.424;2023-06-24T02:21:59;18.40;99.90
39919;DHT22;25589;51.552;13.424;2023-06-24T02:24:27;18.40;99.90
39919;DHT22;25589;51.552;13.424;2023-06-24T02:26:54;18.40;99.90
39919;DHT22;25589;51.552;13.424;2023-06-24T02:29:21;18.40;99.90
39919;DHT22;25589;51.552;13.424;2023-06-24T02:31:48;18.40;99.90
39919;DHT22;25589;51.552;13.424;2023-06-24T02:34:15;18.40;99.90
39919;DHT22;25589;51.552;13.424;2023-06-24T02:36:41;18.40;99.90
39919;DHT22;25589;51.552;13.424;2023-06-24T02:39:07;18.40;99.90
39919;DHT22;25589;51.552;13.424;2023-06-24T02:41:32;18.40;99.90
39919;DHT22;25589;51.552;13.424;2023-06-24T02:43:58;18.40;99.90
39919;DHT22;25589;51.552;13.424;2023-06-24T02:46:24;18.40;99.90
39919;DHT22;25589;51.552;13.424;2023-06-24T02:48:51;18.40;99.90
39919;DHT22;25589;51.552;13.424;2023-06-24T02:51:18;18.40;99.90
39919;DHT22;25589;51.552;13.424;2023-06-24T02:53:45;18.30;99.90
39919;DHT22;25589;51.552;13.424;2023-06-24T02:58:39;18.30;99.90
39919;DHT22;25589;51.552;13.424;2023-06-24T03:01:26;18.20;99.90
39919;DHT22;25589;51.552;13.424;2023-06-24T03:03:54;18.30;99.90
39919;DHT22;25589;51.552;13.424;2023-06-24T03:06:20;18.30;99.90
39919;DHT22;25589;51.552;13.424;2023-06-24T03:08:48;18.20;99.90
39919;DHT22;25589;51.552;13.424;2023-06-24T03:11:16;18.20;99.90
39919;DHT22;25589;51.552;13.424;2023-06-24T03:13:43;18.20;99.90
39919;DHT22;25589;51.552;13.424;2023-06-24T03:16:20;18.20;99.90
39919;DHT22;25589;51.552;13.424;2023-06-24T03:19:02;18.10;99.90
39919;DHT22;25589;51.552;13.424;2023-06-24T03:21:28;18.10;99.90
39919;DHT22;25589;51.552;13.424;2023-06-24T03:23:59;18.00;99.90
39919;DHT22;25589;51.552;13.424;2023-06-24T03:26:36;17.90;99.90
39919;DHT22;25589;51.552;13.424;2023-06-24T03:29:03;18.00;99.90
39919;DHT22;25589;51.552;13.424;2023-06-24T03:31:30;17.90;99.90
39919;DHT22;25589;51.552;13.424;2023-06-24T03:33:56;17.90;99.90
39919;DHT22;25589;51.552;13.424;2023-06-24T03:36:23;17.90;99.90
39919;DHT22;25589;51.552;13.424;2023-06-24T03:38:50;17.90;99.90
39919;DHT22;25589;51.552;13.424;2023-06-24T03:41:16;17.90;99.90
39919;DHT22;25589;51.552;13.424;2023-06-24T03:43:41;17.80;99.90
39919;DHT22;25589;51.552;13.424;2023-06-24T03:46:07;17.80;99.90
39919;DHT22;25589;51.552;13.424;2023-06-24T03:48:34;17.90;99.90
39919;DHT22;25589;51.552;13.424;2023-06-24T03:51:00;17.70;99.90
39919;DHT22;25589;51.552;13.424;2023-06-24T03:53:27;17.80;99.90
39919;DHT22;25589;51.552;13.424;2023-06-24T03:55:53;17.90;99.90
39919;DHT22;25589;51.552;13.424;2023-06-24T03:58:18;17.90;99.90
39919;DHT22;25589;51.552;13.424;2023-06-24T04:00:47;17.80;99.90
39919;DHT22;25589;51.552;13.424;2023-06-24T04:03:15;17.90;99.90
39919;DHT22;25589;51.552;13.424;2023-06-24T04:05:44;17.90;99.90
39919;DHT22;25589;51.552;13.424;2023-06-24T04:08:09;17.80;99.90
39919;DHT22;25589;51.552;13.424;2023-06-24T04:10:35;17.90;99.90
39919;DHT22;25589;51.552;13.424;2023-06-24T04:13:01;17.70;99.90
39919;DHT22;25589;51.552;13.424;2023-06-24T04:15:26;17.90;99.90
39919;DHT22;25589;51.552;13.424;2023-06-24T04:17:53;17.90;99.90
39919;DHT22;25589;51.552;13.424;2023-06-24T04:20:19;17.90;99.90
39919;DHT22;25589;51.552;13.424;2023-06-24T04:22:45;17.90;99.90
39919;DHT22;25589;51.552;13.424;2023-06-24T04:25:11;17.80;99.90
39919;DHT22;25589;51.552;13.424;2023-06-24T04:27:37;17.70;99.90
39919;DHT22;25589;51.552;13.424;2023-06-24T04:30:06;17.90;99.90
39919;DHT22;25589;51.552;13.424;2023-06-24T04:32:32;17.90;99.90
39919;DHT22;25589;51.552;13.424;2023-06-24T04:35:00;17.90;99.90
39919;DHT22;25589;51.552;13.424;2023-06-24T04:37:27;18.00;99.90
39919;DHT22;25589;51.552;13.424;2023-06-24T04:39:53;18.00;99.90
39919;DHT22;25589;51.552;13.424;2023-06-24T04:42:19;18.00;99.90
39919;DHT22;25589;51.552;13.424;2023-06-24T04:44:44;18.10;99.90
39919;DHT22;25589;51.552;13.424;2023-06-24T04:47:10;18.10;99.90
39919;DHT22;25589;51.552;13.424;2023-06-24T04:49:36;18.10;99.90
39919;DHT22;25589;51.552;13.424;2023-06-24T04:52:02;18.40;99.90
39919;DHT22;25589;51.552;13.424;2023-06-24T04:54:27;18.30;99.90
39919;DHT22;25589;51.552;13.424;2023-06-24T04:56:53;18.40;99.90
39919;DHT22;25589;51.552;13.424;2023-06-24T04:59:22;18.40;99.90
39919;DHT22;25589;51.552;13.424;2023-06-24T05:01:47;18.40;99.90
39919;DHT22;25589;51.552;13.424;2023-06-24T05:04:13;18.40;99.90
39919;DHT22;25589;51.552;13.424;2023-06-24T05:06:38;18.40;99.90
39919;DHT22;25589;51.552;13.424;2023-06-24T05:09:04;18.30;99.90
39919;DHT22;25589;51.552;13.424;2023-06-24T05:11:30;18.20;99.90
39919;DHT22;25589;51.552;13.424;2023-06-24T05:13:56;18.20;99.90
39919;DHT22;25589;51.552;13.424;2023-06-24T05:16:21;18.20;99.90
39919;DHT22;25589;51.552;13.424;2023-06-24T05:18:49;18.30;99.90
39919;DHT22;25589;51.552;13.424;2023-06-24T05:21:15;18.60;99.90
39919;DHT22;25589;51.552;13.424;2023-06-24T05:23:41;18.30;99.90
39919;DHT22;25589;51.552;13.424;2023-06-24T05:26:06;18.30;99.90
39919;DHT22;25589;51.552;13.424;2023-06-24T05:28:32;18.40;99.90
39919;DHT22;25589;51.552;13.424;2023-06-24T05:30:57;18.40;99.90
39919;DHT22;25589;51.552;13.424;2023-06-24T05:33:23;18.60;99.90
39919;DHT22;25589;51.552;13.424;2023-06-24T05:35:49;18.40;99.90
39919;DHT22;25589;51.552;13.424;2023-06-24T05:38:15;18.40;99.90
39919;DHT22;25589;51.552;13.424;2023-06-24T05:40:41;18.40;99.90
39919;DHT22;25589;51.552;13.424;2023-06-24T05:43:07;18.50;99.90
39919;DHT22;25589;51.552;13.424;2023-06-24T05:45:33;18.60;99.90
39919;DHT22;25589;51.552;13.424;2023-06-24T05:47:59;18.40;99.90
39919;DHT22;25589;51.552;13.424;2023-06-24T05:50:24;18.30;99.90
39919;DHT22;25589;51.552;13.424;2023-06-24T05:52:50;18.40;99.90
39919;DHT22;25589;51.552;13.424;2023-06-24T05:55:15;18.40;99.90
39919;DHT22;25589;51.552;13.424;2023-06-24T05:57:41;18.40;99.90
39919;DHT22;25589;51.552;13.424;2023-06-24T06:00:07;18.40;99.90
39919;DHT22;25589;51.552;13.424;2023-06-24T06:02:40;18.40;99.90
39919;DHT22;25589;51.552;13.424;2023-06-24T06:05:06;18.40;99.90
39919;DHT22;25589;51.552;13.424;2023-06-24T06:07:32;18.50;99.90
39919;DHT22;25589;51.552;13.424;2023-06-24T06:09:57;18.50;99.90
39919;DHT22;25589;51.552;13.424;2023-06-24T06:12:23;18.40;99.90
39919;DHT22;25589;51.552;13.424;2023-06-24T06:14:49;18.30;99.90
39919;DHT22;25589;51.552;13.424;2023-06-24T06:17:14;18.00;99.90
39919;DHT22;25589;51.552;13.424;2023-06-24T06:19:40;17.90;99.90
39919;DHT22;25589;51.552;13.424;2023-06-24T06:22:07;18.00;99.90
39919;DHT22;25589;51.552;13.424;2023-06-24T06:24:33;18.00;99.90
39919;DHT22;25589;51.552;13.424;2023-06-24T06:26:59;18.00;99.90
39919;DHT22;25589;51.552;13.424;2023-06-24T06:29:25;18.00;99.90
39919;DHT22;25589;51.552;13.424;2023-06-24T06:31:50;18.40;99.90
39919;DHT22;25589;51.552;13.424;2023-06-24T06:34:16;18.20;99.90
39919;DHT22;25589;51.552;13.424;2023-06-24T06:36:41;18.10;99.90
39919;DHT22;25589;51.552;13.424;2023-06-24T06:39:07;18.10;99.90
39919;DHT22;25589;51.552;13.424;2023-06-24T06:41:32;18.30;99.90
39919;DHT22;25589;51.552;13.424;2023-06-24T06:43:58;18.40;99.90
39919;DHT22;25589;51.552;13.424;2023-06-24T06:46:24;18.60;99.90
39919;DHT22;25589;51.552;13.424;2023-06-24T06:48:49;18.40;99.90
39919;DHT22;25589;51.552;13.424;2023-06-24T06:51:16;18.50;99.90
39919;DHT22;25589;51.552;13.424;2023-06-24T06:53:44;18.50;99.90
39919;DHT22;25589;51.552;13.424;2023-06-24T06:56:17;18.50;99.90
39919;DHT22;25589;51.552;13.424;2023-06-24T06:58:42;18.50;99.90
39919;DHT22;25589;51.552;13.424;2023-06-24T07:01:08;18.60;99.90
39919;DHT22;25589;51.552;13.424;2023-06-24T07:03:34;18.40;99.90
39919;DHT22;25589;51.552;13.424;2023-06-24T07:05:59;18.50;99.90
39919;DHT22;25589;51.552;13.424;2023-06-24T07:08:25;18.40;99.90
39919;DHT22;25589;51.552;13.424;2023-06-24T07:10:51;18.40;99.90
39919;DHT22;25589;51.552;13.424;2023-06-24T07:13:17;18.40;99.90
39919;DHT22;25589;51.552;13.424;2023-06-24T07:15:42;18.20;99.90
39919;DHT22;25589;51.552;13.424;2023-06-24T07:18:08;18.20;99.90
39919;DHT22;25589;51.552;13.424;2023-06-24T07:20:34;18.20;99.90
39919;DHT22;25589;51.552;13.424;2023-06-24T07:22:59;18.10;99.90
39919;DHT22;25589;51.552;13.424;2023-06-24T07:25:25;18.10;99.90
39919;DHT22;25589;51.552;13.424;2023-06-24T07:27:51;18.10;99.90
39919;DHT22;25589;51.552;13.424;2023-06-24T07:30:17;18.30;99.90
39919;DHT22;25589;51.552;13.424;2023-06-24T07:32:43;18.40;99.90
39919;DHT22;25589;51.552;13.424;2023-06-24T07:35:08;18.40;99.90
39919;DHT22;25589;51.552;13.424;2023-06-24T07:37:34;18.60;99.90
39919;DHT22;25589;51.552;13.424;2023-06-24T07:40:00;19.00;99.90
39919;DHT22;25589;51.552;13.424;2023-06-24T07:42:25;18.90;99.90
39919;DHT22;25589;51.552;13.424;2023-06-24T07:44:51;18.90;99.90
39919;DHT22;25589;51.552;13.424;2023-06-24T07:47:17;18.90;99.90
39919;DHT22;25589;51.552;13.424;2023-06-24T07:49:44;18.90;99.90
39919;DHT22;25589;51.552;13.424;2023-06-24T07:52:09;19.00;99.90
39919;DHT22;25589;51.552;13.424;2023-06-24T07:54:35;19.20;99.90
39919;DHT22;25589;51.552;13.424;2023-06-24T07:57:01;19.10;99.90
39919;DHT22;25589;51.552;13.424;2023-06-24T07:59:27;19.20;99.90
39919;DHT22;25589;51.552;13.424;2023-06-24T08:01:52;19.20;99.90
39919;DHT22;25589;51.552;13.424;2023-06-24T08:04:18;19.00;99.90
39919;DHT22;25589;51.552;13.424;2023-06-24T08:06:43;19.20;99.90
39919;DHT22;25589;51.552;13.424;2023-06-24T08:09:09;19.20;99.90
39919;DHT22;25589;51.552;13.424;2023-06-24T08:11:34;19.20;99.90
39919;DHT22;25589;51.552;13.424;2023-06-24T08:14:00;19.40;99.90
39919;DHT22;25589;51.552;13.424;2023-06-24T08:16:27;19.30;99.90
39919;DHT22;25589;51.552;13.424;2023-06-24T08:18:52;19.30;99.90
39919;DHT22;25589;51.552;13.424;2023-06-24T08:21:18;19.30;99.90
39919;DHT22;25589;51.552;13.424;2023-06-24T08:23:44;19.50;99.90
39919;DHT22;25589;51.552;13.424;2023-06-24T08:26:10;19.60;99.90
39919;DHT22;25589;51.552;13.424;2023-06-24T08:28:35;19.60;99.90
39919;DHT22;25589;51.552;13.424;2023-06-24T08:31:01;19.60;99.90
39919;DHT22;25589;51.552;13.424;2023-06-24T08:33:26;19.80;99.90
39919;DHT22;25589;51.552;13.424;2023-06-24T08:35:52;19.70;99.90
39919;DHT22;25589;51.552;13.424;2023-06-24T08:38:18;19.70;99.90
39919;DHT22;25589;51.552;13.424;2023-06-24T08:40:44;19.80;99.90
39919;DHT22;25589;51.552;13.424;2023-06-24T08:43:11;20.00;99.90
39919;DHT22;25589;51.552;13.424;2023-06-24T08:45:36;20.20;99.90
39919;DHT22;25589;51.552;13.424;2023-06-24T08:48:02;20.70;99.90
39919;DHT22;25589;51.552;13.424;2023-06-24T08:50:37;20.70;99.90
39919;DHT22;25589;51.552;13.424;2023-06-24T08:53:07;21.00;99.90
39919;DHT22;25589;51.552;13.424;2023-06-24T08:55:36;21.10;99.90
39919;DHT22;25589;51.552;13.424;2023-06-24T08:58:04;21.00;99.90
39919;DHT22;25589;51.552;13.424;2023-06-24T09:00:30;21.10;99.90
39919;DHT22;25589;51.552;13.424;2023-06-24T09:02:56;21.20;99.90
39919;DHT22;25589;51.552;13.424;2023-06-24T09:05:22;21.30;99.90
39919;DHT22;25589;51.552;13.424;2023-06-24T09:07:48;21.40;99.90
39919;DHT22;25589;51.552;13.424;2023-06-24T09:10:30;21.40;99.90
39919;DHT22;25589;51.552;13.424;2023-06-24T09:12:57;21.30;99.90
39919;DHT22;25589;51.552;13.424;2023-06-24T09:15:22;21.20;99.90
39919;DHT22;25589;51.552;13.424;2023-06-24T09:17:48;21.30;99.90
39919;DHT22;25589;51.552;13.424;2023-06-24T09:20:13;21.50;99.90
39919;DHT22;25589;51.552;13.424;2023-06-24T09:22:42;21.60;99.90
39919;DHT22;25589;51.552;13.424;2023-06-24T09:25:07;21.80;99.90
39919;DHT22;25589;51.552;13.424;2023-06-24T09:27:33;22.10;99.90
39919;DHT22;25589;51.552;13.424;2023-06-24T09:29:59;22.20;99.90
39919;DHT22;25589;51.552;13.424;2023-06-24T09:32:31;21.90;99.90
39919;DHT22;25589;51.552;13.424;2023-06-24T09:34:57;21.80;99.90
39919;DHT22;25589;51.552;13.424;2023-06-24T09:37:22;21.80;99.90
39919;DHT22;25589;51.552;13.424;2023-06-24T09:39:49;21.70;99.90
39919;DHT22;25589;51.552;13.424;2023-06-24T09:42:14;22.00;99.90
39919;DHT22;25589;51.552;13.424;2023-06-24T09:44:40;22.10;99.90
39919;DHT22;25589;51.552;13.424;2023-06-24T09:47:06;22.30;99.90
39919;DHT22;25589;51.552;13.424;2023-06-24T09:49:31;22.70;99.90
39919;DHT22;25589;51.552;13.424;2023-06-24T09:51:58;22.70;99.90
39919;DHT22;25589;51.552;13.424;2023-06-24T09:54:25;22.20;99.90
39919;DHT22;25589;51.552;13.424;2023-06-24T09:56:53;21.90;99.90
39919;DHT22;25589;51.552;13.424;2023-06-24T09:59:20;21.90;99.90
39919;DHT22;25589;51.552;13.424;2023-06-24T10:01:46;22.00;99.90
39919;DHT22;25589;51.552;13.424;2023-06-24T10:04:16;22.20;99.90
39919;DHT22;25589;51.552;13.424;2023-06-24T10:06:42;22.50;99.90
39919;DHT22;25589;51.552;13.424;2023-06-24T10:09:08;23.00;99.90
39919;DHT22;25589;51.552;13.424;2023-06-24T10:11:34;22.60;99.90
39919;DHT22;25589;51.552;13.424;2023-06-24T10:13:59;22.30;99.90
39919;DHT22;25589;51.552;13.424;2023-06-24T10:16:25;22.40;99.90
39919;DHT22;25589;51.552;13.424;2023-06-24T10:18:51;22.50;99.90
39919;DHT22;25589;51.552;13.424;2023-06-24T10:21:16;22.40;99.90
39919;DHT22;25589;51.552;13.424;2023-06-24T10:26:26;21.90;99.90
39919;DHT22;25589;51.552;13.424;2023-06-24T10:36:58;22.50;99.90
39919;DHT22;25589;51.552;13.424;2023-06-24T10:39:50;22.70;99.90
39919;DHT22;25589;51.552;13.424;2023-06-24T10:42:38;23.20;99.90
39919;DHT22;25589;51.552;13.424;2023-06-24T10:47:43;22.80;99.90
39919;DHT22;25589;51.552;13.424;2023-06-24T10:50:13;22.50;99.90
39919;DHT22;25589;51.552;13.424;2023-06-24T10:52:41;22.50;99.90
39919;DHT22;25589;51.552;13.424;2023-06-24T10:55:07;22.80;99.90
39919;DHT22;25589;51.552;13.424;2023-06-24T10:57:32;23.20;99.90
39919;DHT22;25589;51.552;13.424;2023-06-24T10:59:58;23.40;99.90
39919;DHT22;25589;51.552;13.424;2023-06-24T11:02:25;23.60;99.90
39919;DHT22;25589;51.552;13.424;2023-06-24T11:04:52;23.50;99.90
39919;DHT22;25589;51.552;13.424;2023-06-24T11:07:20;23.40;99.90
39919;DHT22;25589;51.552;13.424;2023-06-24T11:10:00;23.50;99.90
39919;DHT22;25589;51.552;13.424;2023-06-24T11:12:31;23.70;99.90
39919;DHT22;25589;51.552;13.424;2023-06-24T11:14:58;24.00;99.90
39919;DHT22;25589;51.552;13.424;2023-06-24T11:17:25;24.10;99.90
39919;DHT22;25589;51.552;13.424;2023-06-24T11:19:52;24.10;99.90
39919;DHT22;25589;51.552;13.424;2023-06-24T11:22:18;24.30;99.90
39919;DHT22;25589;51.552;13.424;2023-06-24T11:24:44;24.40;99.90
39919;DHT22;25589;51.552;13.424;2023-06-24T11:27:09;24.20;99.90
39919;DHT22;25589;51.552;13.424;2023-06-24T11:29:35;24.30;99.90
39919;DHT22;25589;51.552;13.424;2023-06-24T11:32:07;24.30;99.90
39919;DHT22;25589;51.552;13.424;2023-06-24T11:34:33;24.30;99.50
39919;DHT22;25589;51.552;13.424;2023-06-24T11:36:58;24.40;99.00
39919;DHT22;25589;51.552;13.424;2023-06-24T11:39:25;24.60;99.20
39919;DHT22;25589;51.552;13.424;2023-06-24T11:41:51;24.80;98.90
39919;DHT22;25589;51.552;13.424;2023-06-24T11:44:21;25.00;98.30
39919;DHT22;25589;51.552;13.424;2023-06-24T11:46:48;25.10;96.60
39919;DHT22;25589;51.552;13.424;2023-06-24T11:49:14;25.00;98.10
39919;DHT22;25589;51.552;13.424;2023-06-24T11:51:49;25.20;97.50
39919;DHT22;25589;51.552;13.424;2023-06-24T11:54:19;25.40;97.30
39919;DHT22;25589;51.552;13.424;2023-06-24T11:56:50;25.50;97.00
39919;DHT22;25589;51.552;13.424;2023-06-24T11:59:21;25.90;96.50
39919;DHT22;25589;51.552;13.424;2023-06-24T12:01:58;26.20;93.60
39919;DHT22;25589;51.552;13.424;2023-06-24T12:04:31;26.20;94.70
39919;DHT22;25589;51.552;13.424;2023-06-24T12:06:57;26.30;95.90
39919;DHT22;25589;51.552;13.424;2023-06-24T12:09:23;26.50;94.70
39919;DHT22;25589;51.552;13.424;2023-06-24T12:11:48;26.60;94.20
39919;DHT22;25589;51.552;13.424;2023-06-24T13:31:19;25.50;99.90
39919;DHT22;25589;51.552;13.424;2023-06-24T13:33:45;25.70;99.90
39919;DHT22;25589;51.552;13.424;2023-06-24T13:36:27;25.90;99.70
39919;DHT22;25589;51.552;13.424;2023-06-24T13:38:53;26.30;97.70
39919;DHT22;25589;51.552;13.424;2023-06-24T13:41:18;26.50;95.80
39919;DHT22;25589;51.552;13.424;2023-06-24T13:43:44;26.60;95.70
39919;DHT22;25589;51.552;13.424;2023-06-24T13:46:09;26.70;96.10
39919;DHT22;25589;51.552;13.424;2023-06-24T13:48:35;26.90;96.50
39919;DHT22;25589;51.552;13.424;2023-06-24T13:51:00;27.10;94.20
39919;DHT22;25589;51.552;13.424;2023-06-24T13:53:26;27.30;94.20
39919;DHT22;25589;51.552;13.424;2023-06-24T13:55:51;27.50;92.40
39919;DHT22;25589;51.552;13.424;2023-06-24T13:58:17;27.40;91.10
39919;DHT22;25589;51.552;13.424;2023-06-24T14:00:42;27.40;90.50
39919;DHT22;25589;51.552;13.424;2023-06-24T14:03:08;27.60;90.70
39919;DHT22;25589;51.552;13.424;2023-06-24T14:05:34;27.50;90.60
39919;DHT22;25589;51.552;13.424;2023-06-24T14:07:59;27.60;91.90
39919;DHT22;25589;51.552;13.424;2023-06-24T14:10:25;27.60;90.00
39919;DHT22;25589;51.552;13.424;2023-06-24T14:12:50;27.60;90.30
39919;DHT22;25589;51.552;13.424;2023-06-24T14:15:16;27.70;90.80
39919;DHT22;25589;51.552;13.424;2023-06-24T14:17:41;27.90;90.80
39919;DHT22;25589;51.552;13.424;2023-06-24T14:20:07;28.00;90.20
39919;DHT22;25589;51.552;13.424;2023-06-24T14:22:33;28.00;87.00
39919;DHT22;25589;51.552;13.424;2023-06-24T14:24:58;28.10;87.40
39919;DHT22;25589;51.552;13.424;2023-06-24T14:27:24;28.70;87.90
39919;DHT22;25589;51.552;13.424;2023-06-24T14:29:50;28.80;85.40
39919;DHT22;25589;51.552;13.424;2023-06-24T14:32:15;28.80;83.40
39919;DHT22;25589;51.552;13.424;2023-06-24T14:34:41;28.80;81.20
39919;DHT22;25589;51.552;13.424;2023-06-24T14:37:06;28.90;80.80
39919;DHT22;25589;51.552;13.424;2023-06-24T14:39:32;28.80;80.40
39919;DHT22;25589;51.552;13.424;2023-06-24T14:41:57;28.80;77.90
39919;DHT22;25589;51.552;13.424;2023-06-24T14:44:23;28.80;79.90
39919;DHT22;25589;51.552;13.424;2023-06-24T14:46:49;28.80;79.20
39919;DHT22;25589;51.552;13.424;2023-06-24T14:49:14;28.90;80.90
39919;DHT22;25589;51.552;13.424;2023-06-24T14:51:40;29.20;79.80
39919;DHT22;25589;51.552;13.424;2023-06-24T14:54:05;29.20;78.50
39919;DHT22;25589;51.552;13.424;2023-06-24T14:56:31;29.50;77.40
39919;DHT22;25589;51.552;13.424;2023-06-24T14:58:57;29.60;78.10
39919;DHT22;25589;51.552;13.424;2023-06-24T15:01:23;29.90;77.60
39919;DHT22;25589;51.552;13.424;2023-06-24T15:03:48;30.10;71.40
39919;DHT22;25589;51.552;13.424;2023-06-24T15:06:14;30.20;68.90
39919;DHT22;25589;51.552;13.424;2023-06-24T15:08:39;30.40;66.70
39919;DHT22;25589;51.552;13.424;2023-06-24T15:11:05;30.60;65.00
39919;DHT22;25589;51.552;13.424;2023-06-24T15:13:31;30.80;63.80
39919;DHT22;25589;51.552;13.424;2023-06-24T15:15:56;30.70;64.40
39919;DHT22;25589;51.552;13.424;2023-06-24T15:18:24;30.50;65.30
39919;DHT22;25589;51.552;13.424;2023-06-24T15:20:50;30.40;63.60
39919;DHT22;25589;51.552;13.424;2023-06-24T15:23:15;30.20;63.00
39919;DHT22;25589;51.552;13.424;2023-06-24T15:25:41;30.50;62.90
39919;DHT22;25589;51.552;13.424;2023-06-24T15:28:06;30.70;62.00
39919;DHT22;25589;51.552;13.424;2023-06-24T15:30:32;30.70;61.50
39919;DHT22;25589;51.552;13.424;2023-06-24T15:32:57;30.80;59.60
39919;DHT22;25589;51.552;13.424;2023-06-24T15:35:23;31.10;59.60
39919;DHT22;25589;51.552;13.424;2023-06-24T15:37:48;30.90;60.00
39919;DHT22;25589;51.552;13.424;2023-06-24T15:40:14;31.00;61.10
39919;DHT22;25589;51.552;13.424;2023-06-24T15:42:40;31.40;60.00
39919;DHT22;25589;51.552;13.424;2023-06-24T15:45:05;31.80;58.30
39919;DHT22;25589;51.552;13.424;2023-06-24T15:47:31;32.00;57.70
39919;DHT22;25589;51.552;13.424;2023-06-24T15:49:57;32.20;57.60
39919;DHT22;25589;51.552;13.424;2023-06-24T15:52:23;32.30;57.10
39919;DHT22;25589;51.552;13.424;2023-06-24T15:54:48;32.20;57.20
39919;DHT22;25589;51.552;13.424;2023-06-24T15:57:14;32.30;57.90
39919;DHT22;25589;51.552;13.424;2023-06-24T15:59:39;32.50;57.20
39919;DHT22;25589;51.552;13.424;2023-06-24T16:02:06;32.60;55.50
39919;DHT22;25589;51.552;13.424;2023-06-24T16:04:31;32.50;56.40
39919;DHT22;25589;51.552;13.424;2023-06-24T16:06:57;32.30;56.30
39919;DHT22;25589;51.552;13.424;2023-06-24T16:09:23;32.10;56.40
39919;DHT22;25589;51.552;13.424;2023-06-24T16:11:48;32.20;56.70
39919;DHT22;25589;51.552;13.424;2023-06-24T16:14:14;32.40;55.60
39919;DHT22;25589;51.552;13.424;2023-06-24T16:16:39;32.30;56.40
39919;DHT22;25589;51.552;13.424;2023-06-24T16:19:05;32.60;56.30
39919;DHT22;25589;51.552;13.424;2023-06-24T16:21:30;33.10;55.70
39919;DHT22;25589;51.552;13.424;2023-06-24T16:23:58;33.30;54.30
39919;DHT22;25589;51.552;13.424;2023-06-24T16:26:24;33.20;54.10
39919;DHT22;25589;51.552;13.424;2023-06-24T16:28:49;33.20;54.70
39919;DHT22;25589;51.552;13.424;2023-06-24T16:31:16;33.00;54.30
39919;DHT22;25589;51.552;13.424;2023-06-24T16:33:42;32.70;54.60
39919;DHT22;25589;51.552;13.424;2023-06-24T16:36:07;32.70;53.70
39919;DHT22;25589;51.552;13.424;2023-06-24T16:38:33;32.50;54.10
39919;DHT22;25589;51.552;13.424;2023-06-24T16:40:59;32.70;54.30
39919;DHT22;25589;51.552;13.424;2023-06-24T16:43:26;32.90;53.30
39919;DHT22;25589;51.552;13.424;2023-06-24T16:45:51;32.80;54.30
39919;DHT22;25589;51.552;13.424;2023-06-24T16:48:17;33.00;53.80
39919;DHT22;25589;51.552;13.424;2023-06-24T16:50:42;33.00;52.50
39919;DHT22;25589;51.552;13.424;2023-06-24T16:53:08;33.00;52.40